Time;durP1;ratioP1;P1;durP2;ratioP2;P2;SDS_P1;SDS_P2;PMS_P1;PMS_P2;Temp;Humidity;BMP_temperature;BMP_pressure;BME280_temperature;BME280_humidity;BME280_pressure;Samples;Min_cycle;Max_cycle;Signal;HPM_P1;HPM_P2
2023/04/11 00:00:36;;;;;;;5.60;5.10;;;;;;;6.43;100.00;95989.16;5094758;28;20502;-75
2023/04/11 00:03:05;;;;;;;5.90;4.80;;;;;;;6.59;100.00;96000.75;5059919;28;20469;-75
2023/04/11 00:05:33;;;;;;;5.97;5.47;;;;;;;6.59;100.00;95977.09;5094718;28;20857;-75
2023/04/11 00:08:00;;;;;;;6.00;5.50;;;;;;;6.69;100.00;95991.78;5076702;28;20999;-74
2023/04/11 00:10:27;;;;;;;5.87;5.27;;;;;;;6.82;100.00;95981.13;5076253;28;20470;-74
2023/04/11 00:12:55;;;;;;;8.23;5.60;;;;;;;6.77;100.00;95969.97;5076351;28;20474;-74
2023/04/11 00:15:25;;;;;;;5.30;4.80;;;;;;;6.76;100.00;95958.72;5094735;28;20466;-74
2023/04/11 00:17:53;;;;;;;6.10;5.50;;;;;;;6.63;100.00;95938.63;5076019;28;20435;-75
2023/04/11 00:20:20;;;;;;;5.20;4.30;;;;;;;6.70;100.00;95943.44;5074330;28;20462;-75
2023/04/11 00:22:47;;;;;;;5.60;5.10;;;;;;;6.60;100.00;95931.38;5036643;28;20465;-75
2023/04/11 00:25:14;;;;;;;7.53;5.20;;;;;;;6.64;100.00;95926.25;5036415;28;20433;-75
2023/04/11 00:27:41;;;;;;;5.83;4.83;;;;;;;6.50;100.00;95935.06;5047226;28;20429;-75
2023/04/11 00:30:08;;;;;;;5.67;5.07;;;;;;;6.97;100.00;95982.50;5059864;28;20467;-75
2023/04/11 00:32:35;;;;;;;6.50;5.20;;;;;;;6.55;100.00;95963.06;5048688;28;20825;-75
2023/04/11 00:35:02;;;;;;;5.13;4.67;;;;;;;6.73;100.00;95997.97;5062361;28;20487;-75
2023/04/11 00:37:34;;;;;;;4.90;4.40;;;;;;;6.77;100.00;96004.13;5063734;28;20472;-75
2023/04/11 00:40:23;;;;;;;5.10;4.60;;;;;;;6.71;100.00;95989.63;5084087;28;20948;-75
2023/04/11 00:42:49;;;;;;;4.80;4.40;;;;;;;6.98;100.00;96006.94;5034702;28;20491;-75
2023/04/11 00:45:16;;;;;;;6.40;5.77;;;;;;;7.18;100.00;96008.13;4992932;28;20530;-75
2023/04/11 00:47:43;;;;;;;6.40;5.90;;;;;;;7.38;100.00;96007.50;5014699;28;20434;-75
2023/04/11 00:50:12;;;;;;;6.97;6.17;;;;;;;7.28;100.00;95984.16;5014801;28;20540;-75
2023/04/11 00:52:40;;;;;;;5.93;4.87;;;;;;;7.26;100.00;95967.91;5015024;28;21033;-75
2023/04/11 00:55:09;;;;;;;6.30;5.40;;;;;;;7.27;100.00;95949.19;4998499;28;20430;-75
2023/04/11 00:57:36;;;;;;;6.63;5.70;;;;;;;7.46;100.00;95988.28;5014673;28;20865;-75
2023/04/11 01:00:04;;;;;;;7.00;5.90;;;;;;;7.14;100.00;95970.41;5014523;28;20484;-75
2023/04/11 01:02:30;;;;;;;7.27;5.97;;;;;;;7.20;100.00;95980.44;5031364;28;20456;-75
2023/04/11 01:04:59;;;;;;;6.17;4.60;;;;;;;7.03;100.00;95939.19;5015788;28;20438;-75
2023/04/11 01:07:27;;;;;;;7.27;6.20;;;;;;;7.04;100.00;95930.22;5019006;28;21007;-75
2023/04/11 01:09:55;;;;;;;6.57;5.67;;;;;;;7.14;100.00;95915.22;5004747;28;20441;-75
2023/04/11 01:12:22;;;;;;;7.43;6.80;;;;;;;7.49;100.00;95934.28;4997910;28;20548;-75
2023/04/11 01:14:49;;;;;;;8.83;6.33;;;;;;;7.36;100.00;95946.56;4998332;28;20438;-75
2023/04/11 01:17:16;;;;;;;7.23;6.03;;;;;;;7.33;100.00;95920.84;5031119;28;20430;-75
2023/04/11 01:19:43;;;;;;;8.57;6.03;;;;;;;7.30;100.00;95908.34;5015854;28;20957;-75
2023/04/11 01:22:13;;;;;;;7.73;5.87;;;;;;;7.25;100.00;95911.94;5061218;28;20474;-76
2023/04/11 01:24:40;;;;;;;8.20;7.20;;;;;;;7.48;100.00;95961.66;5041995;28;20779;-76
2023/04/11 01:27:07;;;;;;;8.00;6.47;;;;;;;7.28;100.00;95940.22;5061807;28;20523;-76
2023/04/11 01:29:33;;;;;;;9.60;8.00;;;;;;;7.32;100.00;95929.84;5058598;28;20511;-76
2023/04/11 01:32:00;;;;;;;6.80;5.90;;;;;;;7.30;100.00;95942.53;5061637;28;20453;-76
2023/04/11 01:34:29;;;;;;;7.00;6.40;;;;;;;7.26;100.00;95939.00;5041421;28;20439;-76
2023/04/11 01:36:56;;;;;;;9.37;7.13;;;;;;;7.00;100.00;95910.91;5064791;28;20954;-75
2023/04/11 01:39:23;;;;;;;6.13;5.63;;;;;;;7.09;100.00;95926.69;5069905;28;20491;-75
2023/04/11 01:41:52;;;;;;;7.17;5.93;;;;;;;7.04;100.00;95903.16;5063605;28;20927;-75
2023/04/11 01:44:19;;;;;;;8.20;6.20;;;;;;;7.09;100.00;95892.50;5064736;28;21000;-76
2023/04/11 01:46:46;;;;;;;5.83;5.33;;;;;;;7.13;100.00;95914.44;5055568;28;20429;-76
2023/04/11 01:49:14;;;;;;;6.80;6.10;;;;;;;7.14;100.00;95900.22;5040004;28;20443;-75
2023/04/11 01:51:41;;;;;;;6.83;6.07;;;;;;;7.13;100.00;95903.16;5055587;28;20500;-75
2023/04/11 01:54:08;;;;;;;7.13;6.33;;;;;;;6.98;100.00;95893.91;5059199;28;20452;-75
2023/04/11 01:56:36;;;;;;;7.53;6.80;;;;;;;6.83;100.00;95887.31;5068260;28;20449;-74
2023/04/11 01:59:03;;;;;;;7.10;6.30;;;;;;;6.98;100.00;95915.72;5061753;28;20921;-75
2023/04/11 02:01:30;;;;;;;7.47;6.63;;;;;;;6.96;100.00;95907.38;5049850;28;20532;-76
2023/04/11 02:03:57;;;;;;;8.27;6.90;;;;;;;6.82;100.00;95872.63;5057800;28;20521;-75
2023/04/11 02:06:26;;;;;;;8.70;6.87;;;;;;;7.01;100.00;95901.94;5044948;28;20443;-75
2023/04/11 02:08:53;;;;;;;7.27;6.53;;;;;;;6.85;100.00;95879.13;5054925;28;20443;-75
2023/04/11 02:11:20;;;;;;;7.00;6.40;;;;;;;6.93;100.00;95883.56;5054003;28;20514;-75
2023/04/11 02:13:48;;;;;;;7.50;6.80;;;;;;;6.80;100.00;95859.00;5054075;28;20547;-75
2023/04/11 02:16:16;;;;;;;6.80;6.07;;;;;;;6.88;100.00;95892.38;5054514;28;20440;-75
2023/04/11 02:18:45;;;;;;;8.40;6.00;;;;;;;6.94;100.00;95888.50;5042354;28;20492;-75
2023/04/11 02:21:14;;;;;;;9.53;7.70;;;;;;;6.96;100.00;95893.47;5047870;28;20435;-75
2023/04/11 02:23:41;;;;;;;8.60;7.10;;;;;;;6.91;100.00;95883.09;5046745;28;20458;-75
2023/04/11 02:26:08;;;;;;;7.40;6.17;;;;;;;6.91;100.00;95917.25;5092856;28;20430;-75
2023/04/11 02:28:35;;;;;;;9.30;5.60;;;;;;;6.88;100.00;95916.03;5057836;28;20430;-75
2023/04/11 02:31:02;;;;;;;7.30;6.40;;;;;;;6.91;100.00;95915.41;5074001;28;20562;-74
2023/04/11 02:33:29;;;;;;;7.80;7.00;;;;;;;6.90;100.00;95911.25;5057830;28;20455;-74
2023/04/11 02:35:56;;;;;;;8.73;7.13;;;;;;;6.77;100.00;95883.28;5074250;28;20510;-74
2023/04/11 02:38:23;;;;;;;7.13;6.43;;;;;;;6.80;100.00;95880.03;5057629;28;20431;-74
2023/04/11 02:40:49;;;;;;;11.47;8.00;;;;;;;6.73;100.00;95877.13;5056681;28;20443;-74
2023/04/11 02:43:16;;;;;;;7.60;6.87;;;;;;;6.66;100.00;95885.47;5034607;28;20507;-74
2023/04/11 02:45:43;;;;;;;10.17;7.30;;;;;;;6.72;100.00;95888.72;5064240;28;20440;-74
2023/04/11 02:48:11;;;;;;;8.03;7.07;;;;;;;6.59;100.00;95871.28;5053838;28;20531;-74
2023/04/11 02:50:42;;;;;;;11.00;7.97;;;;;;;6.53;100.00;95868.03;5053887;28;20440;-74
2023/04/11 02:53:09;;;;;;;9.10;8.13;;;;;;;6.36;100.00;95874.06;5054087;28;20554;-74
2023/04/11 02:55:42;;;;;;;8.80;7.90;;;;;;;6.39;100.00;95872.66;5038058;28;20472;-74
2023/04/11 02:58:09;;;;;;;9.30;8.00;;;;;;;6.20;100.00;95836.25;5050353;28;20437;-74
2023/04/11 03:00:36;;;;;;;9.07;8.07;;;;;;;6.27;100.00;95841.78;5038958;28;20436;-74
2023/04/11 03:03:06;;;;;;;9.03;7.50;;;;;;;6.28;100.00;95853.06;5060510;28;20486;-74
2023/04/11 03:05:39;;;;;;;10.17;8.57;;;;;;;6.29;100.00;95858.03;5037994;28;20455;-74
2023/04/11 03:08:07;;;;;;;8.13;7.33;;;;;;;6.28;100.00;95856.47;5053657;28;20452;-74
2023/04/11 03:10:36;;;;;;;10.17;7.93;;;;;;;6.14;100.00;95834.84;5057842;28;20527;-75
2023/04/11 03:13:04;;;;;;;9.53;8.53;;;;;;;5.87;100.00;95780.81;5063193;28;20471;-75
2023/04/11 03:15:31;;;;;;;10.10;8.00;;;;;;;6.12;100.00;95814.16;5073815;28;20427;-74
2023/04/11 03:18:02;;;;;;;11.67;9.27;;;;;;;6.19;100.00;95845.22;5071348;28;20431;-74
2023/04/11 03:20:29;;;;;;;8.90;8.00;;;;;;;6.10;100.00;95815.56;5033676;28;20433;-74
2023/04/11 03:22:56;;;;;;;11.27;9.93;;;;;;;6.17;100.00;95810.63;5049209;28;20506;-74
2023/04/11 03:25:23;;;;;;;11.80;8.50;;;;;;;5.98;100.00;95802.28;5052943;28;20475;-74
2023/04/11 03:27:51;;;;;;;10.83;9.00;;;;;;;5.96;100.00;95805.22;5053384;28;20861;-74
2023/04/11 03:30:18;;;;;;;11.77;10.00;;;;;;;5.64;100.00;95793.31;5057582;28;20440;-73
2023/04/11 03:32:46;;;;;;;11.43;9.70;;;;;;;5.71;100.00;95777.88;5075384;28;20823;-73
2023/04/11 03:35:13;;;;;;;12.50;9.10;;;;;;;5.65;100.00;95776.50;5062448;28;20443;-74
2023/04/11 03:37:44;;;;;;;10.23;9.33;;;;;;;5.82;100.00;95789.59;5060401;28;20452;-74
2023/04/11 03:40:14;;;;;;;10.70;9.60;;;;;;;5.77;100.00;95775.88;5040746;28;20460;-74
2023/04/11 03:42:45;;;;;;;10.37;9.37;;;;;;;5.78;100.00;95767.72;5057157;28;20689;-74
2023/04/11 03:45:16;;;;;;;9.23;7.80;;;;;;;5.91;100.00;95792.28;5057532;28;20440;-74
2023/04/11 03:47:44;;;;;;;11.20;10.00;;;;;;;5.82;100.00;95765.22;5040369;28;20448;-74
2023/04/11 03:50:13;;;;;;;9.50;8.57;;;;;;;5.61;100.00;95749.34;5037315;28;20445;-74
2023/04/11 03:52:46;;;;;;;11.83;9.23;;;;;;;5.78;100.00;95772.94;5045393;28;20938;-74
2023/04/11 03:55:14;;;;;;;11.83;9.57;;;;;;;5.96;100.00;95771.13;5066973;28;20446;-75
2023/04/11 03:57:42;;;;;;;9.77;8.80;;;;;;;5.60;100.00;95726.81;5076943;28;20529;-74
2023/04/11 04:00:09;;;;;;;10.47;9.00;;;;;;;5.85;100.00;95757.50;5076959;28;20534;-75
2023/04/11 04:02:51;;;;;;;10.60;9.50;;;;;;;5.69;100.00;95730.22;5076957;28;20881;-75
2023/04/11 04:05:19;;;;;;;12.97;10.20;;;;;;;5.52;100.00;95715.25;5076912;28;20493;-75
2023/04/11 04:07:45;;;;;;;11.77;9.07;;;;;;;5.81;100.00;95753.19;5076843;28;20507;-74
2023/04/11 04:10:24;;;;;;;13.47;8.63;;;;;;;5.62;100.00;95719.44;5070787;28;20444;-75
2023/04/11 04:12:52;;;;;;;11.20;9.17;;;;;;;5.89;100.00;95742.72;5046992;28;20483;-75
2023/04/11 04:15:22;;;;;;;12.60;10.27;;;;;;;5.70;100.00;95704.75;5053406;28;20429;-75
2023/04/11 04:17:50;;;;;;;10.53;9.43;;;;;;;6.04;100.00;95743.34;5050839;28;20446;-75
2023/04/11 04:20:43;;;;;;;11.30;8.77;;;;;;;5.93;100.00;95738.41;5060382;28;20432;-75
2023/04/11 04:23:13;;;;;;;10.07;9.03;;;;;;;5.82;100.00;95728.50;5036393;28;20453;-75
2023/04/11 04:26:12;;;;;;;11.43;8.87;;;;;;;5.77;100.00;95695.34;5058588;28;20956;-75
2023/04/11 04:28:45;;;;;;;11.07;8.70;;;;;;;5.93;100.00;95720.03;5076771;28;20460;-75
2023/04/11 04:31:21;;;;;;;11.43;9.00;;;;;;;5.76;100.00;95709.53;5076446;28;20999;-75
2023/04/11 04:33:49;;;;;;;10.33;8.77;;;;;;;5.72;100.00;95707.84;5076351;28;20517;-75
2023/04/11 04:36:20;;;;;;;9.83;8.73;;;;;;;5.96;100.00;95718.66;5075838;28;20937;-75
2023/04/11 04:38:49;;;;;;;12.03;9.57;;;;;;;5.75;100.00;95686.25;5059351;28;20436;-75
2023/04/11 04:41:16;;;;;;;12.23;9.83;;;;;;;5.74;100.00;95692.56;5023234;28;20429;-75
2023/04/11 04:43:56;;;;;;;13.63;10.97;;;;;;;6.00;100.00;95724.81;5067324;28;20842;-75
2023/04/11 04:46:41;;;;;;;10.47;9.23;;;;;;;5.92;100.00;95715.88;5065456;28;20807;-75
2023/04/11 04:49:08;;;;;;;13.73;10.03;;;;;;;5.96;100.00;95717.88;5036207;28;20817;-75
2023/04/11 04:51:37;;;;;;;11.67;9.07;;;;;;;5.98;100.00;95711.22;5061399;28;20473;-75
2023/04/11 04:54:04;;;;;;;12.97;10.93;;;;;;;6.09;100.00;95740.53;5073842;28;20462;-75
2023/04/11 04:56:31;;;;;;;13.90;10.60;;;;;;;6.10;100.00;95745.47;5076013;28;20432;-75
2023/04/11 04:58:58;;;;;;;10.77;9.67;;;;;;;5.93;100.00;95717.41;5058692;28;20438;-75
2023/04/11 05:01:26;;;;;;;10.40;9.30;;;;;;;6.00;100.00;95740.53;5056292;28;20452;-75
2023/04/11 05:03:59;;;;;;;9.73;8.73;;;;;;;6.09;100.00;95761.53;5030622;28;20464;-75
2023/04/11 05:06:42;;;;;;;10.97;9.87;;;;;;;5.90;100.00;95733.78;5045373;28;20877;-75
2023/04/11 05:09:08;;;;;;;9.87;8.87;;;;;;;5.65;100.00;95710.94;5052455;28;20434;-75
2023/04/11 05:11:35;;;;;;;11.17;10.03;;;;;;;5.78;100.00;95735.47;5056208;28;20450;-75
2023/04/11 05:14:02;;;;;;;13.73;10.47;;;;;;;5.97;100.00;95759.53;5101570;28;20435;-75
2023/04/11 05:16:29;;;;;;;14.03;11.33;;;;;;;5.85;100.00;95747.00;5091126;28;20530;-75
2023/04/11 05:18:56;;;;;;;14.50;12.63;;;;;;;5.47;100.00;95683.16;5059031;28;20435;-75
2023/04/11 05:21:23;;;;;;;14.87;10.50;;;;;;;5.76;100.00;95724.50;5038642;28;20873;-75
2023/04/11 05:23:51;;;;;;;11.63;10.40;;;;;;;5.73;100.00;95714.63;5045878;28;21047;-75
2023/04/11 05:26:18;;;;;;;11.97;9.83;;;;;;;5.83;100.00;95711.69;5052073;28;20430;-75
2023/04/11 05:28:44;;;;;;;10.87;9.17;;;;;;;5.90;100.00;95725.16;5059654;28;20449;-75
2023/04/11 05:31:15;;;;;;;13.37;10.30;;;;;;;5.98;100.00;95728.81;5054924;28;20500;-75
2023/04/11 05:33:43;;;;;;;12.53;8.70;;;;;;;5.98;100.00;95731.44;5075115;28;20467;-75
2023/04/11 05:36:12;;;;;;;9.87;8.80;;;;;;;5.91;100.00;95729.31;5075104;28;20431;-75
2023/04/11 05:38:40;;;;;;;11.80;10.03;;;;;;;5.73;100.00;95697.03;5075236;28;20431;-75
2023/04/11 05:41:07;;;;;;;12.77;9.77;;;;;;;6.02;100.00;95727.91;5055151;28;20432;-75
2023/04/11 05:43:34;;;;;;;12.10;9.00;;;;;;;6.06;100.00;95746.41;5067390;28;20558;-75
2023/04/11 05:46:02;;;;;;;11.60;9.97;;;;;;;5.77;100.00;95716.34;5055696;28;20830;-75
2023/04/11 05:48:30;;;;;;;13.20;9.20;;;;;;;5.93;100.00;95740.25;5054315;28;20883;-75
2023/04/11 05:50:57;;;;;;;11.47;9.60;;;;;;;5.69;100.00;95708.47;5051453;28;20463;-75
2023/04/11 05:53:24;;;;;;;11.60;9.93;;;;;;;5.82;100.00;95718.00;5048355;28;20499;-75
2023/04/11 05:55:50;;;;;;;12.43;9.00;;;;;;;5.98;100.00;95742.72;5041725;28;20468;-75
2023/04/11 05:58:17;;;;;;;13.13;11.40;;;;;;;5.91;100.00;95755.53;5054825;28;20474;-75
2023/04/11 06:00:44;;;;;;;11.27;10.17;;;;;;;5.77;100.00;95734.69;5055884;28;20926;-75
2023/04/11 06:03:11;;;;;;;14.37;12.93;;;;;;;5.68;100.00;95762.00;5035261;28;20762;-75
2023/04/11 06:05:39;;;;;;;14.67;10.00;;;;;;;5.66;100.00;95748.41;5034912;28;20449;-74
2023/04/11 06:08:07;;;;;;;12.93;10.70;;;;;;;5.47;100.00;95762.56;5046479;28;20467;-74
2023/04/11 06:10:34;;;;;;;13.30;11.00;;;;;;;5.49;100.00;95778.03;5051057;28;20471;-74
2023/04/11 06:13:00;;;;;;;12.70;11.40;;;;;;;5.38;100.00;95776.78;5048816;28;20468;-74
2023/04/11 06:15:28;;;;;;;13.33;9.00;;;;;;;5.51;100.00;95794.22;5072273;28;20523;-74
2023/04/11 06:17:55;;;;;;;8.97;7.97;;;;;;;5.24;100.00;95772.44;5037378;28;20441;-74
2023/04/11 06:20:22;;;;;;;9.40;7.77;;;;;;;5.64;100.00;95809.03;5058919;28;20424;-74
2023/04/11 06:22:52;;;;;;;8.57;5.97;;;;;;;5.64;100.00;95801.94;5052161;28;20445;-74
2023/04/11 06:25:20;;;;;;;4.70;3.40;;;;;;;5.31;100.00;95774.59;5054004;28;20436;-74
2023/04/11 06:27:47;;;;;;;2.67;2.47;;;;;;;5.63;100.00;95818.00;5036311;28;20441;-75
2023/04/11 06:30:14;;;;;;;4.43;2.60;;;;;;;5.81;100.00;95827.41;5050732;28;20472;-75
2023/04/11 06:32:41;;;;;;;2.43;2.00;;;;;;;5.75;100.00;95843.63;5033632;28;20472;-77
2023/04/11 06:35:08;;;;;;;1.67;1.57;;;;;;;5.61;100.00;95822.78;5037861;28;20451;-75
2023/04/11 06:37:35;;;;;;;2.10;1.90;;;;;;;5.46;100.00;95796.97;5037986;28;20471;-75
2023/04/11 06:40:04;;;;;;;2.00;1.80;;;;;;;5.50;100.00;95803.94;5055528;28;20496;-75
2023/04/11 06:42:31;;;;;;;1.63;1.50;;;;;;;5.60;100.00;95802.84;5047415;28;20990;-74
2023/04/11 06:44:58;;;;;;;1.40;1.30;;;;;;;5.61;100.00;95823.53;5044452;28;20463;-75
2023/04/11 06:47:24;;;;;;;2.00;1.83;;;;;;;5.71;100.00;95843.44;5053664;28;20472;-75
2023/04/11 06:49:51;;;;;;;1.50;1.40;;;;;;;5.62;100.00;95813.81;5053790;28;20440;-75
2023/04/11 06:52:18;;;;;;;1.07;0.90;;;;;;;5.69;100.00;95852.69;5033742;28;20842;-75
2023/04/11 06:54:46;;;;;;;2.10;1.10;;;;;;;5.57;100.00;95821.81;5052824;28;20539;-75
2023/04/11 06:57:13;;;;;;;1.20;1.10;;;;;;;5.85;100.00;95827.56;5046873;28;20526;-75
2023/04/11 06:59:40;;;;;;;3.20;1.77;;;;;;;5.81;100.00;95795.94;5074000;28;20437;-75
2023/04/11 07:02:07;;;;;;;1.47;1.27;;;;;;;5.99;100.00;95788.09;5074056;28;20567;-75
2023/04/11 07:04:33;;;;;;;1.77;1.23;;;;;;;6.34;100.00;95849.22;5092370;28;20466;-75
2023/04/11 07:07:00;;;;;;;5.53;1.10;;;;;;;5.91;100.00;95821.13;5091922;28;20866;-75
2023/04/11 07:09:27;;;;;;;2.57;1.47;;;;;;;6.05;100.00;95850.59;5057329;28;20444;-75
2023/04/11 07:11:55;;;;;;;3.17;1.70;;;;;;;6.10;100.00;95836.56;5091572;28;20924;-75
2023/04/11 07:14:21;;;;;;;3.13;1.10;;;;;;;6.14;100.00;95861.88;5062188;28;20491;-75
2023/04/11 07:16:48;;;;;;;1.20;1.10;;;;;;;5.88;100.00;95859.22;5071360;28;20461;-75
2023/04/11 07:19:15;;;;;;;2.50;1.30;;;;;;;5.83;100.00;95850.72;5071589;28;20428;-76
2023/04/11 07:21:41;;;;;;;1.37;1.27;;;;;;;5.83;100.00;95848.84;5034091;28;20445;-75
2023/04/11 07:24:10;;;;;;;1.83;1.30;;;;;;;5.87;100.00;95857.66;5049138;28;20496;-76
2023/04/11 07:26:37;;;;;;;2.23;1.27;;;;;;;6.03;100.00;95860.66;5052441;28;20429;-76
2023/04/11 07:29:04;;;;;;;4.40;1.63;;;;;;;6.00;100.00;95860.47;5071905;28;20478;-76
2023/04/11 07:31:35;;;;;;;1.13;1.03;;;;;;;6.17;100.00;95892.00;5047670;28;20466;-76
2023/04/11 07:34:01;;;;;;;1.50;1.10;;;;;;;5.99;100.00;95843.94;5073882;28;20536;-76
2023/04/11 07:36:28;;;;;;;8.33;5.93;;;;;;;6.01;100.00;95848.91;5071608;28;20481;-76
2023/04/11 07:38:56;;;;;;;4.93;1.77;;;;;;;6.21;100.00;95856.94;5071426;28;20420;-76
2023/04/11 07:41:23;;;;;;;1.80;1.53;;;;;;;6.37;100.00;95890.59;5070493;28;20491;-75
2023/04/11 07:43:50;;;;;;;3.33;1.40;;;;;;;5.89;100.00;95829.28;5051163;28;20879;-75
2023/04/11 07:46:16;;;;;;;1.80;1.70;;;;;;;6.35;100.00;95883.03;5037147;28;20482;-75
2023/04/11 07:48:43;;;;;;;1.30;1.20;;;;;;;6.36;100.00;95881.94;5053331;28;20527;-76
2023/04/11 07:51:10;;;;;;;1.63;1.53;;;;;;;6.37;100.00;95874.84;5036897;28;21006;-75
2023/04/11 07:53:36;;;;;;;5.83;1.40;;;;;;;6.15;100.00;95854.78;5071519;28;21065;-75
2023/04/11 07:56:03;;;;;;;1.30;1.20;;;;;;;6.55;100.00;95888.75;5065164;28;20472;-75
2023/04/11 07:58:30;;;;;;;1.10;1.00;;;;;;;6.46;100.00;95879.00;5051746;28;20816;-76
2023/04/11 08:00:58;;;;;;;1.20;1.10;;;;;;;6.15;100.00;95852.94;5037023;28;20440;-75
2023/04/11 08:03:25;;;;;;;1.63;1.53;;;;;;;6.48;100.00;95897.84;5072552;28;20487;-75
2023/04/11 08:05:53;;;;;;;3.63;1.57;;;;;;;6.40;100.00;95890.75;5073487;28;20474;-75
2023/04/11 08:08:19;;;;;;;1.67;1.30;;;;;;;6.34;100.00;95886.75;5056654;28;20809;-75
2023/04/11 08:10:46;;;;;;;1.40;1.17;;;;;;;6.30;100.00;95888.44;5062694;28;20638;-75
2023/04/11 08:13:15;;;;;;;1.20;1.10;;;;;;;6.45;100.00;95895.84;5071041;28;20563;-75
2023/04/11 08:15:41;;;;;;;3.13;2.73;;;;;;;5.88;100.00;95801.50;5067631;28;20494;-75
2023/04/11 08:18:08;;;;;;;1.80;1.00;;;;;;;6.20;100.00;95862.50;5075376;28;20428;-75
2023/04/11 08:20:39;;;;;;;4.23;2.70;;;;;;;6.60;100.00;95920.09;5057045;28;20888;-75
2023/04/11 08:23:07;;;;;;;3.43;1.23;;;;;;;6.60;100.00;95905.09;5066837;28;20448;-76
2023/04/11 08:25:35;;;;;;;1.57;1.47;;;;;;;6.77;100.00;95912.97;5056852;28;20440;-76
2023/04/11 08:28:03;;;;;;;1.50;1.10;;;;;;;6.46;100.00;95883.50;5057039;28;20416;-75
2023/04/11 08:30:31;;;;;;;1.77;1.67;;;;;;;6.71;100.00;95902.94;5064941;28;20432;-76
2023/04/11 08:32:58;;;;;;;2.03;1.40;;;;;;;6.81;100.00;95913.91;5065406;28;20466;-75
2023/04/11 08:35:24;;;;;;;2.07;1.50;;;;;;;6.92;100.00;95911.69;5087053;28;20429;-75
2023/04/11 08:37:51;;;;;;;2.53;1.67;;;;;;;6.99;100.00;95906.75;5050216;28;20896;-76
2023/04/11 08:40:18;;;;;;;2.33;1.43;;;;;;;6.88;100.00;95868.75;5049588;28;20851;-76
2023/04/11 08:42:45;;;;;;;2.23;1.53;;;;;;;7.24;100.00;95904.38;5036615;28;20457;-76
2023/04/11 08:45:12;;;;;;;1.73;1.20;;;;;;;7.29;100.00;95872.63;5062075;28;21004;-76
2023/04/11 08:47:39;;;;;;;1.73;1.20;;;;;;;7.34;100.00;95875.06;5053042;28;20428;-76
2023/04/11 08:50:08;;;;;;;4.97;1.47;;;;;;;7.31;100.00;95891.47;5049470;28;20423;-76
2023/04/11 08:52:38;;;;;;;2.10;1.30;;;;;;;7.58;100.00;95900.81;5049416;28;20457;-76
2023/04/11 08:55:05;;;;;;;0.87;0.87;;;;;;;7.81;100.00;95891.56;5058861;28;20840;-76
2023/04/11 08:57:32;;;;;;;5.80;1.50;;;;;;;7.96;100.00;95892.88;5039215;28;20443;-76
2023/04/11 09:00:13;;;;;;;1.57;1.40;;;;;;;8.04;100.00;95867.59;5055788;28;20440;-76
2023/04/11 09:02:58;;;;;;;1.17;1.07;;;;;;;8.18;100.00;95908.38;5064116;28;20473;-76
2023/04/11 09:05:39;;;;;;;2.60;1.87;;;;;;;8.23;100.00;95905.53;5057851;28;20436;-76
2023/04/11 09:08:11;;;;;;;2.80;1.20;;;;;;;7.82;100.00;95890.47;5055570;28;20498;-76
2023/04/11 09:10:39;;;;;;;1.43;1.23;;;;;;;7.85;100.00;95905.63;5073563;28;20425;-76
2023/04/11 09:13:19;;;;;;;8.73;1.47;;;;;;;7.90;100.00;95907.31;5073602;28;20550;-76
2023/04/11 09:15:46;;;;;;;1.00;0.93;;;;;;;8.10;100.00;95911.81;5045590;28;20467;-76
2023/04/11 09:18:33;;;;;;;1.73;1.33;;;;;;;8.26;100.00;95910.16;5070871;28;20527;-76
2023/04/11 09:21:02;;;;;;;3.40;1.13;;;;;;;7.95;100.00;95881.56;5049142;28;20425;-76
2023/04/11 09:23:29;;;;;;;1.30;1.20;;;;;;;8.13;100.00;95891.97;5049372;28;20439;-75
2023/04/11 09:25:56;;;;;;;4.60;1.90;;;;;;;8.64;100.00;95898.72;5062058;28;20436;-75
2023/04/11 09:28:24;;;;;;;4.30;1.40;;;;;;;8.59;100.00;95918.16;5038943;28;20462;-76
2023/04/11 09:30:53;;;;;;;4.20;1.50;;;;;;;8.35;100.00;95919.88;5073246;28;21063;-76
2023/04/11 09:33:27;;;;;;;1.57;1.07;;;;;;;7.99;100.00;95879.81;5052516;28;20493;-76
2023/04/11 09:35:55;;;;;;;1.93;1.67;;;;;;;8.36;100.00;95916.16;5064214;28;20782;-75
2023/04/11 09:38:33;;;;;;;2.70;1.43;;;;;;;8.60;100.00;95921.56;5061042;28;20420;-75
2023/04/11 09:41:02;;;;;;;3.10;1.73;;;;;;;8.42;100.00;95896.44;5058209;28;20470;-76
2023/04/11 09:43:54;;;;;;;4.73;2.87;;;;;;;8.35;100.00;95898.81;5051968;28;20971;-76
2023/04/11 09:46:21;;;;;;;7.67;4.13;;;;;;;8.38;100.00;95908.72;5038991;28;21002;-75
2023/04/11 09:48:50;;;;;;;7.53;3.40;;;;;;;8.64;100.00;95914.53;5054852;28;20440;-76
2023/04/11 09:51:18;;;;;;;6.40;2.00;;;;;;;8.55;100.00;95890.91;5048951;28;20440;-76
2023/04/11 09:54:02;;;;;;;5.70;2.23;;;;;;;8.80;100.00;95899.66;5049111;28;20461;-75
2023/04/11 09:56:30;;;;;;;3.40;1.50;;;;;;;9.09;100.00;95905.91;5064421;28;20425;-76
2023/04/11 09:58:58;;;;;;;5.90;1.80;;;;;;;9.25;100.00;95883.06;5072763;28;20956;-76
2023/04/11 10:01:26;;;;;;;4.57;1.70;;;;;;;9.58;100.00;95877.69;5063666;28;20439;-76
2023/04/11 10:03:54;;;;;;;2.70;1.43;;;;;;;9.31;100.00;95900.22;5055696;28;20460;-75
2023/04/11 10:06:32;;;;;;;8.70;2.10;;;;;;;8.88;100.00;95892.78;5064159;28;20435;-76
2023/04/11 10:09:09;;;;;;;4.87;1.33;;;;;;;9.15;100.00;95905.38;5026122;28;20428;-76
2023/04/11 10:11:40;;;;;;;1.53;1.27;;;;;;;8.89;100.00;95896.94;5054573;28;20854;-75
2023/04/11 10:14:07;;;;;;;1.30;1.20;;;;;;;8.78;100.00;95862.31;5064797;28;20547;-76
2023/04/11 10:16:33;;;;;;;10.63;2.10;;;;;;;8.85;100.00;95903.97;5072245;28;20428;-76
2023/04/11 10:19:00;;;;;;;6.10;2.00;;;;;;;8.81;100.00;95897.78;5064256;28;20505;-76
2023/04/11 10:21:33;;;;;;;2.03;1.33;;;;;;;8.61;100.00;95902.00;5054608;28;20785;-76
2023/04/11 10:24:22;;;;;;;3.17;1.97;;;;;;;8.32;100.00;95871.25;5054038;28;20491;-76
2023/04/11 10:26:54;;;;;;;5.43;1.67;;;;;;;8.20;100.00;95874.56;5054083;28;20451;-76
2023/04/11 10:29:27;;;;;;;3.53;1.70;;;;;;;8.44;100.00;95894.25;5051823;28;20843;-75
2023/04/11 10:32:12;;;;;;;2.03;1.83;;;;;;;8.50;100.00;95896.38;5056518;28;20487;-76
2023/04/11 10:34:59;;;;;;;2.50;2.07;;;;;;;8.50;100.00;95903.50;5045397;28;20492;-76
2023/04/11 10:37:29;;;;;;;1.73;1.43;;;;;;;8.71;100.00;95898.97;5047904;28;20444;-76
2023/04/11 10:40:11;;;;;;;2.60;1.10;;;;;;;8.93;100.00;95899.69;5053868;28;20934;-76
2023/04/11 10:42:42;;;;;;;4.43;1.27;;;;;;;9.04;100.00;95908.75;5047196;28;20508;-76
2023/04/11 10:45:18;;;;;;;6.33;1.33;;;;;;;8.99;100.00;95901.81;5053803;28;20913;-76
2023/04/11 10:47:50;;;;;;;3.83;2.40;;;;;;;8.95;100.00;95905.41;5071615;28;20967;-76
2023/04/11 10:50:27;;;;;;;3.30;1.43;;;;;;;8.99;100.00;95903.69;5046249;28;20429;-76
2023/04/11 10:52:58;;;;;;;3.53;1.30;;;;;;;9.77;100.00;95887.72;5071345;28;20542;-76
2023/04/11 10:55:27;;;;;;;2.03;1.50;;;;;;;9.71;100.00;95876.59;5054055;28;20454;-76
2023/04/11 10:58:21;;;;;;;2.90;1.30;;;;;;;9.69;100.00;95912.34;5037341;28;20440;-76
2023/04/11 11:00:51;;;;;;;5.37;1.80;;;;;;;9.73;100.00;95898.16;5039536;28;20489;-76
2023/04/11 11:03:29;;;;;;;3.33;1.63;;;;;;;10.02;100.00;95844.31;5058534;28;20529;-76
2023/04/11 11:06:02;;;;;;;5.03;1.80;;;;;;;10.45;100.00;95879.13;5043939;28;20479;-76
2023/04/11 11:08:34;;;;;;;1.50;1.33;;;;;;;9.74;100.00;95849.53;5044461;28;20452;-76
2023/04/11 11:11:05;;;;;;;3.60;1.40;;;;;;;9.68;100.00;95879.13;5061806;28;20428;-76
2023/04/11 11:13:41;;;;;;;5.10;1.80;;;;;;;10.24;99.30;95909.13;5021001;28;20472;-75
2023/04/11 11:16:15;;;;;;;1.80;1.27;;;;;;;9.68;96.63;95860.66;5057033;28;20444;-76
2023/04/11 11:18:48;;;;;;;1.73;1.27;;;;;;;9.76;98.39;95918.63;5053593;28;20428;-76
2023/04/11 11:21:19;;;;;;;2.30;1.83;;;;;;;10.19;96.11;95919.91;5053338;28;20517;-76
2023/04/11 11:23:59;;;;;;;3.30;1.30;;;;;;;10.49;94.69;95883.41;5047507;28;21059;-75
2023/04/11 11:26:42;;;;;;;4.47;1.90;;;;;;;10.60;91.67;95857.25;5050443;28;20439;-76
2023/04/11 11:29:10;;;;;;;2.40;1.27;;;;;;;10.51;88.13;95883.81;5053644;28;20829;-75
2023/04/11 11:31:44;;;;;;;4.10;1.30;;;;;;;10.77;85.67;95938.16;5057222;28;20544;-75
2023/04/11 11:34:11;;;;;;;6.90;1.53;;;;;;;10.01;86.70;95903.50;5058234;28;20538;-76
2023/04/11 11:36:51;;;;;;;1.20;1.10;;;;;;;9.74;88.03;95907.59;5043463;28;20790;-76
2023/04/11 11:39:18;;;;;;;1.00;0.90;;;;;;;10.23;89.08;95902.31;5059669;28;20433;-76
2023/04/11 11:41:48;;;;;;;1.90;1.33;;;;;;;10.70;90.95;95935.34;5033668;28;20495;-76